Time;durP1;ratioP1;P1;durP2;ratioP2;P2;SDS_P1;SDS_P2;PMS_P1;PMS_P2;Temp;Humidity;BMP_temperature;BMP_pressure;BME280_temperature;BME280_humidity;BME280_pressure;Samples;Min_cycle;Max_cycle;Signal;HPM_P1;HPM_P2
2023/08/10 00:01:47;;;;;;;1.40;1.30;;;14.40;99.90;;;;;;5094431;28;20268;-69
2023/08/10 00:04:12;;;;;;;5.77;1.73;;;14.40;99.90;;;;;;5106716;28;20170;-69
2023/08/10 00:06:39;;;;;;;6.33;1.70;;;14.40;99.90;;;;;;5073798;28;20193;-70
2023/08/10 00:09:07;;;;;;;2.67;1.60;;;14.30;99.90;;;;;;5063899;28;20653;-69
2023/08/10 00:11:32;;;;;;;3.57;2.10;;;14.30;99.90;;;;;;5088674;28;20443;-69
2023/08/10 00:13:58;;;;;;;8.53;1.60;;;14.30;99.90;;;;;;5072844;28;20418;-69
2023/08/10 00:16:23;;;;;;;2.10;1.37;;;14.20;99.90;;;;;;5073569;28;20253;-69
2023/08/10 00:18:49;;;;;;;2.70;1.83;;;14.20;99.90;;;;;;5073862;28;20182;-69
2023/08/10 00:21:15;;;;;;;2.80;1.57;;;14.20;99.90;;;;;;5064799;28;20187;-69
2023/08/10 00:23:40;;;;;;;2.13;1.53;;;14.20;99.90;;;;;;5092954;28;20161;-69
2023/08/10 00:26:06;;;;;;;1.43;1.20;;;14.10;99.90;;;;;;5073543;28;20505;-69
2023/08/10 00:28:32;;;;;;;2.80;1.57;;;14.00;99.90;;;;;;5073728;28;20178;-69
2023/08/10 00:30:58;;;;;;;1.57;1.40;;;14.00;99.90;;;;;;5090446;28;20212;-69
2023/08/10 00:33:24;;;;;;;4.90;2.30;;;14.00;99.90;;;;;;5075873;28;21045;-69
2023/08/10 00:35:49;;;;;;;1.70;1.60;;;13.90;99.90;;;;;;5093596;28;20649;-69
2023/08/10 00:38:15;;;;;;;1.47;1.37;;;13.90;99.90;;;;;;5075158;28;20231;-69
2023/08/10 00:40:41;;;;;;;2.53;1.90;;;13.90;99.90;;;;;;5093305;28;20800;-69
2023/08/10 00:43:07;;;;;;;2.30;1.30;;;13.80;99.90;;;;;;5062565;28;20431;-69
2023/08/10 00:45:32;;;;;;;1.40;1.10;;;13.80;99.90;;;;;;5089978;28;20580;-69
2023/08/10 00:47:58;;;;;;;2.13;1.50;;;13.80;99.90;;;;;;5093624;28;20638;-68
2023/08/10 00:50:24;;;;;;;2.20;1.50;;;13.80;99.90;;;;;;5093041;28;20592;-68
2023/08/10 00:52:50;;;;;;;4.13;1.80;;;13.80;99.90;;;;;;5074831;28;20166;-68
2023/08/10 00:55:16;;;;;;;5.23;1.80;;;13.80;99.90;;;;;;5067314;28;20836;-68
2023/08/10 00:57:42;;;;;;;2.80;1.73;;;13.80;99.90;;;;;;5091712;28;20443;-68
2023/08/10 01:00:10;;;;;;;3.70;2.03;;;13.80;99.90;;;;;;5085948;28;20170;-68
2023/08/10 01:02:37;;;;;;;8.30;1.60;;;13.90;99.90;;;;;;5094456;28;20622;-68
2023/08/10 01:05:04;;;;;;;6.57;2.00;;;13.90;99.90;;;;;;5073874;28;20415;-69
2023/08/10 01:07:53;;;;;;;4.27;2.03;;;14.00;99.90;;;;;;5087478;28;20439;-70
2023/08/10 01:10:24;;;;;;;1.90;1.63;;;14.10;99.90;;;;;;5084194;28;20777;-70
2023/08/10 01:13:06;;;;;;;3.73;1.73;;;14.20;99.90;;;;;;5076520;28;20773;-70
2023/08/10 01:15:37;;;;;;;3.50;1.90;;;14.30;99.90;;;;;;5080264;28;20399;-69
2023/08/10 01:18:11;;;;;;;3.00;1.77;;;14.40;99.90;;;;;;5054270;28;20448;-69
2023/08/10 01:20:38;;;;;;;2.13;1.57;;;14.40;99.90;;;;;;5089319;28;20466;-70
2023/08/10 01:23:18;;;;;;;2.53;2.17;;;14.50;99.90;;;;;;5094831;28;20939;-70
2023/08/10 01:25:45;;;;;;;2.07;1.73;;;14.50;99.90;;;;;;5112617;28;20405;-69
2023/08/10 01:28:12;;;;;;;2.13;1.20;;;14.40;99.90;;;;;;5090564;28;20420;-69
2023/08/10 01:30:39;;;;;;;2.90;1.30;;;14.40;99.90;;;;;;5070006;28;20502;-69
2023/08/10 01:33:05;;;;;;;3.20;1.50;;;14.40;99.90;;;;;;5071242;28;20836;-69
2023/08/10 01:35:31;;;;;;;3.17;1.70;;;14.30;99.90;;;;;;5092260;28;20419;-69
2023/08/10 01:37:56;;;;;;;1.70;1.43;;;14.30;99.90;;;;;;5076072;28;20198;-70
2023/08/10 01:40:22;;;;;;;7.90;1.67;;;14.20;99.90;;;;;;5054051;28;20209;-69
2023/08/10 01:42:47;;;;;;;5.03;1.70;;;14.20;99.90;;;;;;5057751;28;20166;-69
2023/08/10 01:45:13;;;;;;;1.77;1.67;;;14.10;99.90;;;;;;5085970;28;20212;-69
2023/08/10 01:48:02;;;;;;;1.80;1.30;;;14.10;99.90;;;;;;5074093;28;20177;-69
2023/08/10 01:50:32;;;;;;;2.10;1.63;;;14.20;99.90;;;;;;5092023;28;20285;-69
2023/08/10 01:53:05;;;;;;;2.27;1.27;;;14.20;99.90;;;;;;5074027;28;20814;-69
2023/08/10 01:55:31;;;;;;;3.67;1.37;;;14.20;99.90;;;;;;5074519;28;20460;-69
2023/08/10 01:57:57;;;;;;;1.20;1.10;;;14.20;99.90;;;;;;5086843;28;20513;-69
2023/08/10 02:00:23;;;;;;;2.13;1.60;;;14.30;99.90;;;;;;5069473;28;20261;-69
2023/08/10 02:02:48;;;;;;;2.70;1.83;;;14.30;99.90;;;;;;5070903;28;20205;-69
2023/08/10 02:05:14;;;;;;;2.10;1.47;;;14.40;99.90;;;;;;5090620;28;20173;-69
2023/08/10 02:07:41;;;;;;;3.77;1.97;;;14.30;99.90;;;;;;5081095;28;20197;-69
2023/08/10 02:10:08;;;;;;;2.37;1.60;;;14.30;99.90;;;;;;5082254;28;20178;-69
2023/08/10 02:12:33;;;;;;;2.83;2.10;;;14.30;99.90;;;;;;5079564;28;20428;-69
2023/08/10 02:15:00;;;;;;;1.77;1.40;;;14.30;99.90;;;;;;5063933;28;20561;-69
2023/08/10 02:17:28;;;;;;;2.50;1.70;;;14.30;99.90;;;;;;5086356;28;20201;-69
2023/08/10 02:19:54;;;;;;;1.93;1.70;;;14.20;99.90;;;;;;5087845;28;20760;-69
2023/08/10 02:22:20;;;;;;;3.03;1.37;;;14.10;99.90;;;;;;5111013;28;20455;-69
2023/08/10 02:24:45;;;;;;;2.00;1.70;;;14.00;99.90;;;;;;5116181;28;20309;-69
2023/08/10 02:27:11;;;;;;;2.50;1.50;;;13.90;99.90;;;;;;5072786;28;20178;-69
2023/08/10 02:29:36;;;;;;;2.30;1.60;;;13.90;99.90;;;;;;5086389;28;20177;-69
2023/08/10 02:32:02;;;;;;;2.67;1.67;;;13.80;99.90;;;;;;5083535;28;20189;-69
2023/08/10 02:34:27;;;;;;;1.80;1.50;;;13.70;99.90;;;;;;5095768;28;20177;-69
2023/08/10 02:36:53;;;;;;;2.30;1.87;;;13.70;99.90;;;;;;5077242;28;20189;-69
2023/08/10 02:39:19;;;;;;;3.50;2.27;;;13.60;99.90;;;;;;5077538;28;20585;-69
2023/08/10 02:41:44;;;;;;;4.60;2.20;;;13.60;99.90;;;;;;5076024;28;20284;-69
2023/08/10 02:44:10;;;;;;;3.67;1.70;;;13.60;99.90;;;;;;5064161;28;20393;-69
2023/08/10 02:46:36;;;;;;;3.30;1.83;;;13.60;99.90;;;;;;5094238;28;20165;-69
2023/08/10 02:49:01;;;;;;;4.97;1.40;;;13.70;99.90;;;;;;5085278;28;20930;-69
2023/08/10 02:51:27;;;;;;;1.70;1.60;;;13.70;99.90;;;;;;5077368;28;20188;-69
2023/08/10 02:53:52;;;;;;;2.00;1.17;;;13.70;99.90;;;;;;5073822;28;20180;-69
2023/08/10 02:56:18;;;;;;;3.60;1.57;;;13.80;99.90;;;;;;5081621;28;20173;-69
2023/08/10 02:58:44;;;;;;;4.00;2.40;;;13.90;99.90;;;;;;5078242;28;20200;-69
2023/08/10 03:01:09;;;;;;;4.67;2.40;;;13.90;99.90;;;;;;5092231;28;20201;-69
2023/08/10 03:03:35;;;;;;;5.47;3.03;;;13.90;99.90;;;;;;5070878;28;20521;-69
2023/08/10 03:06:01;;;;;;;2.13;1.73;;;13.80;99.90;;;;;;5077135;28;20176;-69
2023/08/10 03:08:27;;;;;;;4.10;1.77;;;13.80;99.90;;;;;;5077030;28;20651;-69
2023/08/10 03:10:53;;;;;;;2.57;2.10;;;13.70;99.90;;;;;;5094114;28;20505;-69
2023/08/10 03:13:19;;;;;;;5.10;2.07;;;13.70;99.90;;;;;;5066986;28;20432;-69
2023/08/10 03:15:44;;;;;;;4.93;2.00;;;13.60;99.90;;;;;;5102677;28;20418;-69
2023/08/10 03:18:10;;;;;;;3.50;2.20;;;13.50;99.90;;;;;;5097427;28;20556;-69
2023/08/10 03:20:35;;;;;;;1.73;1.63;;;13.50;99.90;;;;;;5115366;28;20185;-69
2023/08/10 03:23:01;;;;;;;2.20;1.80;;;13.40;99.90;;;;;;5095487;28;20165;-69
2023/08/10 03:25:27;;;;;;;6.50;1.60;;;13.40;99.90;;;;;;5095703;28;20170;-69
2023/08/10 03:27:52;;;;;;;4.50;1.70;;;13.30;99.90;;;;;;5085073;28;20178;-70
2023/08/10 03:30:18;;;;;;;2.43;1.53;;;13.30;99.90;;;;;;5074719;28;20560;-70
2023/08/10 03:32:43;;;;;;;1.90;1.70;;;13.20;99.90;;;;;;5071229;28;20623;-70
2023/08/10 03:35:10;;;;;;;1.77;1.40;;;13.20;99.90;;;;;;5095144;28;20678;-70
2023/08/10 03:37:36;;;;;;;3.23;1.40;;;13.10;99.90;;;;;;5095079;28;20443;-70
2023/08/10 03:40:01;;;;;;;2.70;1.33;;;13.10;99.90;;;;;;5076821;28;20422;-70
2023/08/10 03:42:27;;;;;;;2.23;1.73;;;13.10;99.90;;;;;;5094870;28;20614;-70
2023/08/10 03:44:55;;;;;;;8.03;1.80;;;13.00;99.90;;;;;;5095094;28;20164;-70
2023/08/10 03:47:21;;;;;;;6.63;2.23;;;13.00;99.90;;;;;;5073952;28;20256;-69
2023/08/10 03:49:46;;;;;;;2.77;1.97;;;13.00;99.90;;;;;;5062254;28;20427;-69
2023/08/10 03:52:12;;;;;;;2.10;1.43;;;13.00;99.90;;;;;;5070998;28;20448;-69
2023/08/10 03:54:37;;;;;;;4.33;2.63;;;13.00;99.90;;;;;;5071323;28;20170;-69
2023/08/10 03:57:03;;;;;;;2.43;1.70;;;13.00;99.90;;;;;;5095359;28;20655;-69
2023/08/10 03:59:28;;;;;;;2.47;2.20;;;12.90;99.90;;;;;;5075990;28;20162;-69
2023/08/10 04:01:54;;;;;;;3.27;1.60;;;12.90;99.90;;;;;;5068460;28;20225;-69
2023/08/10 04:04:19;;;;;;;4.10;2.00;;;12.90;99.90;;;;;;5083250;28;20174;-69
2023/08/10 04:06:45;;;;;;;4.20;3.10;;;12.90;99.90;;;;;;5073692;28;20208;-69
2023/08/10 04:09:10;;;;;;;4.50;3.07;;;12.90;99.90;;;;;;5094624;28;20665;-69
2023/08/10 04:11:36;;;;;;;5.23;2.67;;;12.90;99.90;;;;;;5089602;28;20182;-70
2023/08/10 04:14:01;;;;;;;2.87;2.30;;;12.90;99.90;;;;;;5077613;28;20598;-70
2023/08/10 04:16:27;;;;;;;3.33;1.70;;;12.90;99.90;;;;;;5093802;28;20157;-70
2023/08/10 04:18:52;;;;;;;2.33;1.67;;;12.90;99.90;;;;;;5093855;28;20193;-70
2023/08/10 04:21:18;;;;;;;2.90;2.17;;;12.90;99.90;;;;;;5081420;28;20186;-70
2023/08/10 04:23:43;;;;;;;2.43;1.70;;;12.90;99.90;;;;;;5092869;28;20170;-70
2023/08/10 04:26:09;;;;;;;4.43;1.33;;;13.00;99.90;;;;;;5090544;28;20185;-69
2023/08/10 04:28:35;;;;;;;1.30;0.80;;;13.00;99.90;;;;;;5073170;28;20190;-70
2023/08/10 04:31:00;;;;;;;1.50;1.10;;;13.00;99.90;;;;;;5073203;28;20194;-69
2023/08/10 04:33:26;;;;;;;2.57;1.20;;;13.00;99.90;;;;;;5080728;28;20185;-69
2023/08/10 04:35:52;;;;;;;1.90;1.37;;;13.10;99.90;;;;;;5103993;28;20173;-69
2023/08/10 04:38:18;;;;;;;2.10;1.50;;;13.10;99.90;;;;;;5095362;28;20192;-70
2023/08/10 04:40:43;;;;;;;1.70;1.10;;;13.10;99.90;;;;;;5093484;28;20458;-70
2023/08/10 04:43:09;;;;;;;4.17;1.07;;;13.30;99.90;;;;;;5093674;28;20240;-70
2023/08/10 04:45:34;;;;;;;3.73;1.97;;;13.40;99.90;;;;;;5109945;28;20210;-69
2023/08/10 04:48:00;;;;;;;1.90;1.20;;;13.50;99.90;;;;;;5093411;28;20169;-69
2023/08/10 04:50:25;;;;;;;2.23;1.63;;;13.70;99.90;;;;;;5090560;28;20367;-69
2023/08/10 04:52:51;;;;;;;1.60;0.93;;;13.80;99.90;;;;;;5077225;28;20184;-69
2023/08/10 04:55:19;;;;;;;54.97;8.40;;;14.00;99.90;;;;;;5073631;28;20193;-69
2023/08/10 04:57:44;;;;;;;2.80;0.90;;;14.20;99.90;;;;;;5102612;28;20497;-69
2023/08/10 05:00:13;;;;;;;2.37;2.17;;;14.40;99.90;;;;;;5091004;28;20459;-68
2023/08/10 05:02:39;;;;;;;324.37;19.37;;;14.60;99.90;;;;;;5093458;28;20682;-69
2023/08/10 05:05:06;;;;;;;3.70;2.43;;;14.80;99.90;;;;;;5092614;28;20430;-69
2023/08/10 05:07:32;;;;;;;4.30;3.13;;;15.00;99.90;;;;;;5084265;28;20479;-70
2023/08/10 05:09:59;;;;;;;5.53;2.30;;;15.20;99.90;;;;;;5072732;28;20858;-69
2023/08/10 05:12:25;;;;;;;2.47;1.80;;;15.30;99.90;;;;;;5099767;28;20403;-70
2023/08/10 05:14:50;;;;;;;2.97;1.90;;;15.50;99.90;;;;;;5100220;28;20952;-69
2023/08/10 05:17:16;;;;;;;3.77;1.50;;;15.70;99.90;;;;;;5092194;28;20194;-70
2023/08/10 05:19:42;;;;;;;4.30;1.60;;;15.90;99.90;;;;;;5092631;28;20166;-70
2023/08/10 05:22:07;;;;;;;1.73;1.10;;;16.00;99.90;;;;;;5077178;28;20198;-70
2023/08/10 05:24:33;;;;;;;52.43;43.50;;;16.10;99.90;;;;;;5072296;28;20178;-71
2023/08/10 05:27:00;;;;;;;601.30;99.40;;;16.20;99.90;;;;;;5080978;28;20169;-71
2023/08/10 05:29:26;;;;;;;4.07;1.70;;;16.40;99.90;;;;;;5091395;28;20173;-72
2023/08/10 05:31:51;;;;;;;76.60;21.03;;;16.50;99.90;;;;;;5089570;28;20502;-71
2023/08/10 05:34:17;;;;;;;21.40;11.07;;;16.70;99.90;;;;;;5098579;28;20173;-71
2023/08/10 05:36:42;;;;;;;322.50;33.10;;;16.80;99.90;;;;;;5084758;28;20193;-71
2023/08/10 05:39:08;;;;;;;17.00;2.03;;;16.90;99.90;;;;;;5072057;28;20189;-72
2023/08/10 05:41:34;;;;;;;55.93;16.97;;;17.00;99.90;;;;;;5083840;28;20190;-71
2023/08/10 05:44:00;;;;;;;65.43;15.63;;;17.10;99.90;;;;;;5090986;28;20764;-71
2023/08/10 05:46:25;;;;;;;11.90;2.63;;;17.20;99.90;;;;;;5107406;28;20165;-71
2023/08/10 05:48:51;;;;;;;14.30;1.70;;;17.40;99.90;;;;;;5069006;28;20202;-71
2023/08/10 05:51:16;;;;;;;21.07;2.27;;;17.60;99.90;;;;;;5087323;28;20243;-71
2023/08/10 05:53:42;;;;;;;222.47;18.23;;;17.80;99.90;;;;;;5073693;28;20215;-72
2023/08/10 05:56:08;;;;;;;2.83;1.90;;;18.10;99.90;;;;;;5088729;28;20192;-71
2023/08/10 05:58:34;;;;;;;4.33;1.43;;;18.40;99.90;;;;;;5109105;28;20200;-71
2023/08/10 06:00:59;;;;;;;2.70;1.70;;;18.70;99.90;;;;;;5077611;28;20193;-71
2023/08/10 06:03:25;;;;;;;2.43;1.97;;;19.10;99.90;;;;;;5090116;28;20435;-71
2023/08/10 06:05:51;;;;;;;2.30;1.63;;;19.70;99.90;;;;;;5080748;28;20692;-71
2023/08/10 06:08:16;;;;;;;3.83;1.40;;;20.40;99.90;;;;;;5053664;28;20221;-71
2023/08/10 06:10:42;;;;;;;2.00;1.67;;;21.30;99.90;;;;;;5077728;28;20209;-71
2023/08/10 06:13:07;;;;;;;1.43;1.20;;;22.30;99.90;;;;;;5084751;28;20200;-72
2023/08/10 06:15:33;;;;;;;3.00;1.43;;;23.30;99.90;;;;;;5082717;28;20694;-71
2023/08/10 06:17:59;;;;;;;3.10;1.43;;;24.30;99.90;;;;;;5083043;28;20205;-69
2023/08/10 06:20:27;;;;;;;1.30;1.20;;;25.20;99.90;;;;;;5085386;28;20253;-69
2023/08/10 06:22:56;;;;;;;2.20;1.77;;;26.10;99.90;;;;;;5085558;28;20212;-70
2023/08/10 06:25:22;;;;;;;4.37;1.93;;;27.00;99.90;;;;;;5082223;28;20464;-70
2023/08/10 06:27:48;;;;;;;3.40;1.70;;;27.90;94.40;;;;;;5072128;28;20439;-70
2023/08/10 06:30:14;;;;;;;2.37;1.67;;;28.70;87.60;;;;;;5090385;28;20431;-70
2023/08/10 06:32:39;;;;;;;2.03;1.83;;;29.40;80.00;;;;;;5100014;28;20542;-70
2023/08/10 06:35:05;;;;;;;2.40;2.07;;;30.10;73.80;;;;;;5083073;28;20227;-70
2023/08/10 06:37:32;;;;;;;4.10;1.70;;;30.90;67.30;;;;;;5091561;28;20189;-70
2023/08/10 06:39:58;;;;;;;2.70;1.17;;;31.60;60.20;;;;;;5085512;28;20970;-70
2023/08/10 06:42:23;;;;;;;3.40;2.60;;;32.30;56.60;;;;;;5080501;28;20457;-70
2023/08/10 06:44:49;;;;;;;2.43;1.53;;;33.10;54.20;;;;;;5092471;28;20185;-70
2023/08/10 06:47:14;;;;;;;2.03;1.20;;;33.80;51.40;;;;;;5081068;28;20208;-70
2023/08/10 06:49:40;;;;;;;4.20;1.50;;;34.60;48.80;;;;;;5084185;28;20262;-70
2023/08/10 06:52:06;;;;;;;4.17;1.50;;;35.30;47.20;;;;;;5081867;28;20194;-71
2023/08/10 06:54:32;;;;;;;4.87;1.70;;;36.00;44.60;;;;;;5086399;28;20427;-66
2023/08/10 06:56:57;;;;;;;1.60;1.23;;;36.50;42.80;;;;;;5103453;28;20646;-66
2023/08/10 06:59:23;;;;;;;8.40;1.70;;;37.10;41.30;;;;;;5092807;28;20598;-66
2023/08/10 07:01:48;;;;;;;2.50;1.53;;;37.70;40.50;;;;;;5091598;28;20239;-66
2023/08/10 07:04:14;;;;;;;1.40;1.10;;;38.20;39.50;;;;;;5108115;28;20196;-66
2023/08/10 07:06:39;;;;;;;2.80;1.40;;;38.80;38.40;;;;;;5115659;28;20532;-67
2023/08/10 07:09:09;;;;;;;2.93;1.60;;;39.30;37.40;;;;;;5102403;28;20185;-67
2023/08/10 07:11:34;;;;;;;2.37;1.40;;;39.90;36.20;;;;;;5088717;28;20206;-66
2023/08/10 07:14:01;;;;;;;2.53;1.50;;;40.70;35.20;;;;;;5078114;28;20501;-66
2023/08/10 07:16:26;;;;;;;1.50;1.27;;;41.40;34.10;;;;;;5090102;28;20736;-66
2023/08/10 07:18:52;;;;;;;2.60;1.60;;;42.00;32.50;;;;;;5090933;28;20525;-66
2023/08/10 07:21:18;;;;;;;4.30;1.60;;;42.70;31.20;;;;;;5094534;28;20286;-66
2023/08/10 07:23:43;;;;;;;1.50;1.40;;;43.20;30.40;;;;;;5091635;28;20302;-67
2023/08/10 07:26:10;;;;;;;1.77;1.20;;;43.80;29.60;;;;;;5071837;28;20651;-67
2023/08/10 07:28:36;;;;;;;1.80;1.40;;;44.30;28.40;;;;;;5083398;28;20184;-66
2023/08/10 07:31:01;;;;;;;2.70;1.63;;;44.80;27.60;;;;;;5072422;28;20463;-67
2023/08/10 07:33:27;;;;;;;3.70;1.60;;;45.30;27.40;;;;;;5088654;28;20532;-66
2023/08/10 07:35:53;;;;;;;1.50;1.40;;;45.80;27.00;;;;;;5113713;28;20257;-67
2023/08/10 07:38:19;;;;;;;1.53;1.43;;;46.20;26.20;;;;;;5085494;28;20454;-67
2023/08/10 07:40:45;;;;;;;2.37;1.43;;;46.70;25.50;;;;;;5087651;28;20452;-67
2023/08/10 07:43:10;;;;;;;1.93;1.83;;;47.10;25.40;;;;;;5099427;28;20570;-67
2023/08/10 07:45:36;;;;;;;2.43;1.60;;;47.70;25.20;;;;;;5114662;28;20165;-67
2023/08/10 07:48:04;;;;;;;1.60;1.33;;;47.80;23.70;;;;;;5114766;28;20180;-67
2023/08/10 07:50:30;;;;;;;1.93;1.40;;;48.30;24.30;;;;;;5097199;28;20477;-67
2023/08/10 07:52:55;;;;;;;2.53;1.70;;;48.30;24.00;;;;;;5088525;28;20427;-67
2023/08/10 07:55:21;;;;;;;2.00;1.77;;;47.60;23.30;;;;;;5086468;28;20459;-67
2023/08/10 07:57:46;;;;;;;1.33;1.23;;;46.40;23.00;;;;;;5094082;28;20518;-66
2023/08/10 08:00:13;;;;;;;2.37;1.50;;;45.20;23.20;;;;;;5088809;28;20185;-66
2023/08/10 08:02:39;;;;;;;1.93;1.33;;;45.60;24.30;;;;;;5093016;28;20665;-67
2023/08/10 08:05:06;;;;;;;2.17;1.33;;;46.00;24.50;;;;;;5093219;28;20498;-67
2023/08/10 08:07:31;;;;;;;2.10;1.40;;;45.60;23.60;;;;;;5095300;28;20194;-67
2023/08/10 08:09:58;;;;;;;1.67;1.47;;;45.20;23.80;;;;;;5071040;28;20417;-67
2023/08/10 08:12:26;;;;;;;1.40;1.30;;;45.30;24.40;;;;;;5090175;28;20216;-67
2023/08/10 08:14:52;;;;;;;2.40;1.50;;;46.00;24.40;;;;;;5088541;28;20432;-67
2023/08/10 08:17:17;;;;;;;1.67;1.57;;;46.60;22.10;;;;;;5062445;28;20435;-68
2023/08/10 08:19:43;;;;;;;2.00;1.70;;;47.50;22.80;;;;;;5079774;28;20428;-68
2023/08/10 08:22:08;;;;;;;1.63;1.53;;;48.10;22.40;;;;;;5078528;28;20209;-67
2023/08/10 08:24:34;;;;;;;1.87;1.63;;;48.40;22.40;;;;;;5062409;28;20178;-67
2023/08/10 08:26:59;;;;;;;1.97;1.87;;;48.50;22.30;;;;;;5067365;28;20339;-67
2023/08/10 08:29:25;;;;;;;2.63;1.73;;;48.70;21.70;;;;;;5087304;28;20552;-67
2023/08/10 08:31:51;;;;;;;4.20;1.80;;;49.00;21.70;;;;;;5064484;28;20190;-67
2023/08/10 08:34:16;;;;;;;2.67;1.50;;;49.50;21.80;;;;;;5087195;28;20182;-68
2023/08/10 08:36:42;;;;;;;1.90;1.80;;;49.90;21.30;;;;;;5077745;28;20309;-68
2023/08/10 08:39:09;;;;;;;3.93;3.63;;;50.60;21.00;;;;;;5088670;28;20169;-68
2023/08/10 08:41:37;;;;;;;7.53;6.83;;;51.40;21.10;;;;;;5086449;28;20688;-68
2023/08/10 08:44:07;;;;;;;2.90;2.30;;;51.90;19.90;;;;;;5061504;28;20423;-67
2023/08/10 08:46:37;;;;;;;1.90;1.80;;;52.40;20.50;;;;;;5054467;28;20428;-68
2023/08/10 08:49:04;;;;;;;1.93;1.83;;;52.70;20.00;;;;;;5070445;28;20990;-67
2023/08/10 08:51:30;;;;;;;2.10;2.00;;;53.00;19.80;;;;;;5080139;28;20439;-68
2023/08/10 08:54:00;;;;;;;2.10;2.00;;;53.40;20.10;;;;;;5087766;28;20431;-68
2023/08/10 08:56:26;;;;;;;2.10;2.00;;;53.90;20.30;;;;;;5082765;28;20427;-67
2023/08/10 08:58:52;;;;;;;2.00;1.90;;;54.20;20.00;;;;;;5090001;28;20822;-67
2023/08/10 09:01:19;;;;;;;2.17;2.07;;;54.50;19.60;;;;;;5083390;28;20323;-68
2023/08/10 09:03:44;;;;;;;2.70;2.00;;;54.80;19.40;;;;;;5083169;28;20787;-67
2023/08/10 09:06:10;;;;;;;2.40;2.30;;;55.00;19.40;;;;;;5086050;28;20438;-67
2023/08/10 09:08:38;;;;;;;2.60;2.40;;;55.00;19.30;;;;;;5085502;28;20201;-68
2023/08/10 09:11:04;;;;;;;3.30;2.30;;;55.20;19.30;;;;;;5081123;28;20199;-67
2023/08/10 09:13:30;;;;;;;2.40;2.30;;;55.20;19.30;;;;;;5082111;28;20423;-67
2023/08/10 09:16:10;;;;;;;2.20;2.10;;;55.30;19.50;;;;;;5085476;28;20946;-67
2023/08/10 09:18:38;;;;;;;2.07;1.97;;;55.50;19.10;;;;;;5089256;28;20203;-67
2023/08/10 09:21:18;;;;;;;2.63;2.53;;;55.70;19.30;;;;;;5112908;28;20425;-67
2023/08/10 09:23:49;;;;;;;2.97;2.77;;;56.10;19.10;;;;;;5112973;28;20883;-67
2023/08/10 09:26:20;;;;;;;2.40;2.30;;;56.30;18.60;;;;;;5073121;28;20923;-67
2023/08/10 09:28:50;;;;;;;2.80;2.60;;;56.40;18.70;;;;;;5092368;28;20478;-67
2023/08/10 09:31:26;;;;;;;3.00;2.80;;;56.30;18.10;;;;;;5092449;28;20449;-67
2023/08/10 09:33:59;;;;;;;2.00;1.90;;;56.00;17.10;;;;;;5074405;28;20472;-68
2023/08/10 09:36:27;;;;;;;2.47;2.27;;;56.00;18.10;;;;;;5092058;28;20387;-68
2023/08/10 09:38:53;;;;;;;2.00;1.90;;;56.10;18.20;;;;;;5092415;28;20864;-68
2023/08/10 09:41:20;;;;;;;2.50;2.30;;;56.20;18.60;;;;;;5090551;28;20447;-67
2023/08/10 09:43:46;;;;;;;2.10;2.00;;;56.10;17.30;;;;;;5093942;28;20486;-68
2023/08/10 09:46:14;;;;;;;2.20;2.10;;;55.90;17.70;;;;;;5112311;28;20406;-68
2023/08/10 09:48:41;;;;;;;2.10;2.00;;;55.70;18.30;;;;;;5112532;28;20472;-67
2023/08/10 09:51:09;;;;;;;2.37;2.27;;;55.70;18.60;;;;;;5112476;28;20421;-68
2023/08/10 09:53:36;;;;;;;2.23;2.13;;;55.80;18.80;;;;;;5112633;28;20489;-68
2023/08/10 09:56:02;;;;;;;2.67;2.47;;;56.10;18.90;;;;;;5111115;28;20394;-68
2023/08/10 09:58:28;;;;;;;2.80;2.70;;;56.30;18.40;;;;;;5083506;28;20560;-67
2023/08/10 10:00:55;;;;;;;2.80;2.60;;;56.70;18.80;;;;;;5103838;28;20627;-67
2023/08/10 10:03:22;;;;;;;2.80;2.60;;;57.00;18.30;;;;;;5112629;28;20168;-67
2023/08/10 10:05:49;;;;;;;2.63;2.53;;;57.20;18.20;;;;;;5112075;28;20402;-67
2023/08/10 10:08:16;;;;;;;2.70;2.60;;;57.40;18.10;;;;;;5112043;28;20457;-67
2023/08/10 10:10:43;;;;;;;2.20;2.10;;;57.50;17.80;;;;;;5094065;28;20437;-68
2023/08/10 10:13:15;;;;;;;2.80;2.70;;;57.50;18.00;;;;;;5112313;28;20409;-67
2023/08/10 10:15:44;;;;;;;2.40;2.30;;;57.50;17.90;;;;;;5088990;28;20462;-67
2023/08/10 10:18:11;;;;;;;3.50;3.20;;;57.70;18.50;;;;;;5105469;28;20402;-67
2023/08/10 10:20:43;;;;;;;2.60;2.40;;;58.00;18.40;;;;;;5112131;28;20414;-68
2023/08/10 10:23:20;;;;;;;2.50;2.40;;;58.30;18.40;;;;;;5094079;28;20861;-68
2023/08/10 10:26:04;;;;;;;3.87;3.57;;;58.50;18.40;;;;;;5111950;28;20439;-68
2023/08/10 10:28:31;;;;;;;3.20;3.00;;;58.90;17.60;;;;;;5112184;28;20518;-68
2023/08/10 10:31:09;;;;;;;3.47;3.17;;;59.00;17.70;;;;;;5103096;28;20779;-68
2023/08/10 10:33:35;;;;;;;2.90;2.80;;;59.30;17.80;;;;;;5088431;28;20508;-67
2023/08/10 10:36:12;;;;;;;3.90;3.70;;;59.40;17.90;;;;;;5111895;28;20816;-68
2023/08/10 10:38:46;;;;;;;3.70;3.40;;;59.50;17.50;;;;;;5113351;28;20393;-67
2023/08/10 10:41:16;;;;;;;3.43;3.23;;;59.40;17.20;;;;;;5116105;28;20843;-67
2023/08/10 10:43:44;;;;;;;3.40;3.10;;;59.30;17.10;;;;;;5115757;28;20398;-67
2023/08/10 10:46:33;;;;;;;5.00;3.13;;;59.20;17.10;;;;;;5115844;28;20398;-67
2023/08/10 10:48:59;;;;;;;3.37;3.17;;;58.60;16.70;;;;;;5093933;28;20545;-68
2023/08/10 10:51:27;;;;;;;3.03;2.87;;;58.30;17.50;;;;;;5102695;28;20453;-68
2023/08/10 10:53:54;;;;;;;3.33;3.17;;;58.20;17.60;;;;;;5115876;28;20405;-68
2023/08/10 10:56:20;;;;;;;3.73;3.53;;;58.10;17.70;;;;;;5115597;28;20481;-67
2023/08/10 10:58:47;;;;;;;5.10;4.33;;;58.10;17.60;;;;;;5115497;28;20408;-69
2023/08/10 11:01:17;;;;;;;4.80;4.50;;;58.10;17.30;;;;;;5115725;28;20426;-69
2023/08/10 11:03:53;;;;;;;4.10;3.90;;;58.10;17.60;;;;;;5108656;28;20438;-69
2023/08/10 11:06:20;;;;;;;5.20;4.90;;;58.10;17.40;;;;;;5101102;28;20411;-69
2023/08/10 11:08:54;;;;;;;4.67;4.47;;;58.40;18.00;;;;;;5115474;28;20849;-69
2023/08/10 11:11:21;;;;;;;5.07;4.77;;;58.60;17.70;;;;;;5115544;28;20944;-69
2023/08/10 11:13:47;;;;;;;5.93;5.33;;;58.80;17.90;;;;;;5115684;28;20814;-68
2023/08/10 11:16:13;;;;;;;5.60;5.10;;;58.90;17.80;;;;;;5115258;28;20918;-68
2023/08/10 11:18:39;;;;;;;4.70;4.40;;;58.50;16.30;;;;;;5115412;28;20398;-68
2023/08/10 11:21:08;;;;;;;4.63;4.33;;;58.40;17.70;;;;;;5097306;28;20844;-68
2023/08/10 11:23:34;;;;;;;4.50;4.20;;;58.50;17.70;;;;;;5091379;28;20181;-67
2023/08/10 11:26:02;;;;;;;4.23;4.03;;;58.40;17.80;;;;;;5094667;28;20958;-67
2023/08/10 11:28:28;;;;;;;5.57;5.27;;;58.50;18.00;;;;;;5094705;28;20192;-68
2023/08/10 11:30:53;;;;;;;4.10;3.90;;;58.50;16.50;;;;;;5094687;28;20496;-69
2023/08/10 11:33:19;;;;;;;4.27;3.97;;;58.30;17.20;;;;;;5076581;28;20218;-68
2023/08/10 11:35:52;;;;;;;4.40;4.20;;;58.60;18.00;;;;;;5092990;28;20157;-68
2023/08/10 11:38:18;;;;;;;4.90;4.60;;;59.00;18.50;;;;;;5094211;28;20177;-68
2023/08/10 11:40:45;;;;;;;4.77;4.57;;;59.10;18.10;;;;;;5094503;28;20470;-68
2023/08/10 11:43:15;;;;;;;3.83;3.63;;;59.30;18.40;;;;;;5076344;28;20407;-68
2023/08/10 11:45:41;;;;;;;4.47;4.17;;;59.50;17.40;;;;;;5094270;28;20457;-67
2023/08/10 11:48:12;;;;;;;4.40;4.10;;;59.70;18.20;;;;;;5094377;28;20799;-68
2023/08/10 11:50:39;;;;;;;4.93;4.43;;;59.80;17.80;;;;;;5094012;28;20419;-68
2023/08/10 11:53:16;;;;;;;4.50;4.20;;;60.00;18.00;;;;;;5091362;28;20434;-67
2023/08/10 11:55:50;;;;;;;5.17;4.87;;;60.20;18.00;;;;;;5102941;28;20454;-69
2023/08/10 11:58:17;;;;;;;4.57;4.27;;;60.30;18.10;;;;;;5114767;28;20391;-72
2023/08/10 12:00:48;;;;;;;6.93;6.37;;;60.50;18.10;;;;;;5114549;28;20440;-72
2023/08/10 12:03:25;;;;;;;5.73;5.30;;;60.30;18.10;;;;;;5114673;28;20873;-72
2023/08/10 12:05:54;;;;;;;5.63;5.17;;;60.20;17.70;;;;;;5114516;28;20926;-72
2023/08/10 12:08:30;;;;;;;5.50;5.07;;;60.00;17.40;;;;;;5114443;28;20869;-71
2023/08/10 12:11:01;;;;;;;5.90;5.40;;;59.80;17.60;;;;;;5090618;28;20449;-71
2023/08/10 12:13:27;;;;;;;6.50;5.90;;;59.70;17.80;;;;;;5100876;28;20422;-72
2023/08/10 12:15:54;;;;;;;6.00;5.60;;;59.70;17.40;;;;;;5095951;28;20410;-72
2023/08/10 12:18:22;;;;;;;6.47;5.97;;;59.70;17.80;;;;;;5114349;28;20164;-72
2023/08/10 12:20:49;;;;;;;5.73;5.33;;;59.40;18.00;;;;;;5114134;28;20426;-72
2023/08/10 12:23:16;;;;;;;7.90;7.10;;;59.40;18.00;;;;;;5114215;28;20412;-72
2023/08/10 12:25:44;;;;;;;7.50;6.93;;;59.40;18.10;;;;;;5103101;28;20517;-72
2023/08/10 12:28:11;;;;;;;6.93;6.20;;;59.40;18.40;;;;;;5080655;28;20482;-72
2023/08/10 12:30:37;;;;;;;6.63;6.13;;;58.90;18.20;;;;;;5093577;28;20510;-71
2023/08/10 12:33:03;;;;;;;6.03;5.53;;;58.70;18.00;;;;;;5093652;28;20453;-72
2023/08/10 12:35:29;;;;;;;6.77;6.20;;;58.60;17.70;;;;;;5093224;28;20903;-72
2023/08/10 12:37:54;;;;;;;7.73;7.10;;;58.50;18.10;;;;;;5093526;28;20407;-72
2023/08/10 12:40:21;;;;;;;6.43;6.00;;;58.40;17.80;;;;;;5093290;28;20596;-71
2023/08/10 12:42:47;;;;;;;6.37;5.73;;;58.20;17.70;;;;;;5091148;28;20181;-71
2023/08/10 12:45:13;;;;;;;5.83;5.27;;;58.10;18.10;;;;;;5080242;28;20506;-71